Map

Track Data

SID SEASON NUMBER BASIN SUBBASIN NAME ISO_TIME NATURE LAT LON WMO_WIND WMO_PRES WMO_AGENCY TRACK_TYPE DIST2LAND LANDFALL IFLAG USA_AGENCY USA_ATCF_ID USA_LAT USA_LON USA_RECORD USA_STATUS USA_WIND USA_PRES USA_SSHS USA_R34_NE USA_R34_SE USA_R34_SW USA_R34_NW USA_R50_NE USA_R50_SE USA_R50_SW USA_R50_NW USA_R64_NE USA_R64_SE USA_R64_SW USA_R64_NW USA_POCI USA_ROCI USA_RMW USA_EYE TOKYO_LAT TOKYO_LON TOKYO_GRADE TOKYO_WIND TOKYO_PRES TOKYO_R50_DIR TOKYO_R50_LONG TOKYO_R50_SHORT TOKYO_R30_DIR TOKYO_R30_LONG TOKYO_R30_SHORT TOKYO_LAND CMA_LAT CMA_LON CMA_CAT CMA_WIND CMA_PRES HKO_LAT HKO_LON HKO_CAT HKO_WIND HKO_PRES NEWDELHI_LAT NEWDELHI_LON NEWDELHI_GRADE NEWDELHI_WIND NEWDELHI_PRES NEWDELHI_CI NEWDELHI_DP NEWDELHI_POCI REUNION_LAT REUNION_LON REUNION_TYPE REUNION_WIND REUNION_PRES REUNION_TNUM REUNION_CI REUNION_RMW REUNION_R34_NE REUNION_R34_SE REUNION_R34_SW REUNION_R34_NW REUNION_R50_NE REUNION_R50_SE REUNION_R50_SW REUNION_R50_NW REUNION_R64_NE REUNION_R64_SE REUNION_R64_SW REUNION_R64_NW BOM_LAT BOM_LON BOM_TYPE BOM_WIND BOM_PRES BOM_TNUM BOM_CI BOM_RMW BOM_R34_NE BOM_R34_SE BOM_R34_SW BOM_R34_NW BOM_R50_NE BOM_R50_SE BOM_R50_SW BOM_R50_NW BOM_R64_NE BOM_R64_SE BOM_R64_SW BOM_R64_NW BOM_ROCI BOM_POCI BOM_EYE BOM_POS_METHOD BOM_PRES_METHOD NADI_LAT NADI_LON NADI_CAT NADI_WIND NADI_PRES WELLINGTON_LAT WELLINGTON_LON WELLINGTON_WIND WELLINGTON_PRES DS824_LAT DS824_LON DS824_STAGE DS824_WIND DS824_PRES TD9636_LAT TD9636_LON TD9636_STAGE TD9636_WIND TD9636_PRES TD9635_LAT TD9635_LON TD9635_WIND TD9635_PRES TD9635_ROCI NEUMANN_LAT NEUMANN_LON NEUMANN_CLASS NEUMANN_WIND NEUMANN_PRES MLC_LAT MLC_LON MLC_CLASS MLC_WIND MLC_PRES USA_GUST BOM_GUST BOM_GUST_PER REUNION_GUST REUNION_GUST_PER USA_SEAHGT USA_SEARAD_NE USA_SEARAD_SE USA_SEARAD_SW USA_SEARAD_NW STORM_SPEED STORM_DIR
2018215N41326 2018 53 NA NA DEBBY 2018-08-02 18:00:00 ET 41.2000 -33.7000 30 1012 hurdat_atl main 1647 1595 O_____________ hurdat_atl AL042018 41.2000 -33.7000 EX 30 1012 -4 1015 130 90 14 254
2018215N41326 2018 53 NA NA DEBBY 2018-08-02 21:00:00 ET 40.9991 -34.6113 main 1595 1545 P_____________ AL042018 40.9991 -34.6113 EX 32 1011 -4 1015 130 90 14 254
2018215N41326 2018 53 NA NA DEBBY 2018-08-03 00:00:00 ET 40.8000 -35.5000 35 1011 hurdat_atl main 1545 1500 O_____________ hurdat_atl AL042018 40.8000 -35.5000 EX 35 1011 -4 90 90 1015 130 90 14 253
2018215N41326 2018 53 NA NA DEBBY 2018-08-03 03:00:00 ET 40.6067 -36.3566 main 1493 1449 P_____________ AL042018 40.6067 -36.3566 EX 35 1011 -4 90 90 1015 130 90 13 253
2018215N41326 2018 53 NA NA DEBBY 2018-08-03 06:00:00 ET 40.4000 -37.2000 35 1011 hurdat_atl main 1449 1407 O_____________ hurdat_atl AL042018 40.4000 -37.2000 EX 35 1011 -4 90 90 1015 130 90 14 251
2018215N41326 2018 53 NA NA DEBBY 2018-08-03 09:00:00 ET 40.1720 -38.0567 main 1400 1367 P_____________ AL042018 40.1720 -38.0567 EX 35 1011 -4 90 90 1015 130 90 14 249
2018215N41326 2018 53 NA NA DEBBY 2018-08-03 12:00:00 ET 39.9000 -38.9000 35 1011 hurdat_atl main 1367 1336 O_____________ hurdat_atl AL042018 39.9000 -38.9000 EX 35 1011 -4 90 90 1015 130 90 14 244
2018215N41326 2018 53 NA NA DEBBY 2018-08-03 15:00:00 ET 39.5566 -39.6998 main 1336 1314 P_____________ AL042018 39.5566 -39.6998 EX 35 1010 -4 90 90 1015 130 90 14 240
2018215N41326 2018 53 NA NA DEBBY 2018-08-03 18:00:00 DS 39.2000 -40.5000 35 1010 hurdat_atl main 1316 1288 O_____________ hurdat_atl AL042018 39.2000 -40.5000 LO 35 1010 -3 90 90 1015 130 90 14 243
2018215N41326 2018 53 NA NA DEBBY 2018-08-03 21:00:00 DS 38.9069 -41.3335 main 1289 1258 P_____________ AL042018 38.9069 -41.3335 LO 35 1010 -3 90 90 1015 130 90 15 246
2018215N41326 2018 53 NA NA DEBBY 2018-08-04 00:00:00 DS 38.6000 -42.2000 35 1010 hurdat_atl main 1261 1236 O_____________ hurdat_atl AL042018 38.6000 -42.2000 LO 35 1010 -3 90 90 1015 130 90 16 245
2018215N41326 2018 53 NA NA DEBBY 2018-08-04 03:00:00 DS 38.2380 -43.1449 main 1245 1230 P_____________ AL042018 38.2380 -43.1449 LO 32 1010 -3 1015 130 80 16 240
2018215N41326 2018 53 NA NA DEBBY 2018-08-04 06:00:00 DS 37.8000 -44.0000 30 1010 hurdat_atl main 1234 1233 O_____________ hurdat_atl AL042018 37.8000 -44.0000 LO 30 1010 -3 1015 130 70 15 230
2018215N41326 2018 53 NA NA DEBBY 2018-08-04 09:00:00 DS 37.2641 -44.6167 main 1252 1252 P_____________ AL042018 37.2641 -44.6167 LO 30 1010 -3 1015 130 60 14 219
2018215N41326 2018 53 NA NA DEBBY 2018-08-04 12:00:00 DS 36.7000 -45.1000 30 1010 hurdat_atl main 1287 1287 O_____________ hurdat_atl AL042018 36.7000 -45.1000 LO 30 1010 -3 1015 130 50 13 214
2018215N41326 2018 53 NA NA DEBBY 2018-08-04 15:00:00 DS 36.1844 -45.5412 main 1320 1316 P_____________ AL042018 36.1844 -45.5412 LO 30 1010 -3 1015 130 55 12 216
2018215N41326 2018 53 NA NA DEBBY 2018-08-04 18:00:00 DS 35.7000 -46.0000 30 1010 hurdat_atl main 1351 1351 O_____________ hurdat_atl AL042018 35.7000 -46.0000 LO 30 1010 -3 1015 130 60 13 222
2018215N41326 2018 53 NA NA DEBBY 2018-08-04 21:00:00 DS 35.2425 -46.5771 main 1382 1379 P_____________ AL042018 35.2425 -46.5771 LO 30 1010 -3 1015 130 60 13 227
2018215N41326 2018 53 NA NA DEBBY 2018-08-05 00:00:00 DS 34.8000 -47.2000 30 1010 hurdat_atl main 1405 1402 O_____________ hurdat_atl AL042018 34.8000 -47.2000 LO 30 1010 -3 1015 130 60 14 229
2018215N41326 2018 53 NA NA DEBBY 2018-08-05 03:00:00 DS 34.3576 -47.8297 main 1430 1430 P_____________ AL042018 34.3576 -47.8297 LO 30 1010 -3 1015 130 60 13 228
2018215N41326 2018 53 NA NA DEBBY 2018-08-05 06:00:00 DS 33.9000 -48.4000 30 1010 hurdat_atl main 1469 1469 O_____________ hurdat_atl AL042018 33.9000 -48.4000 LO 30 1010 -3 1015 130 60 13 221
2018215N41326 2018 53 NA NA DEBBY 2018-08-05 09:00:00 DS 33.3847 -48.8446 main 1515 1513 P_____________ AL042018 33.3847 -48.8446 LO 30 1010 -3 1015 140 60 12 214
2018215N41326 2018 53 NA NA DEBBY 2018-08-05 12:00:00 DS 32.9000 -49.2000 30 1010 hurdat_atl main 1561 1561 O_____________ hurdat_atl AL042018 32.9000 -49.2000 LO 30 1010 -3 1015 150 60 10 213
2018215N41326 2018 53 NA NA DEBBY 2018-08-05 15:00:00 DS 32.5124 -49.5220 main 1600 1598 P_____________ AL042018 32.5124 -49.5220 LO 30 1010 -3 1015 150 60 9 216
2018215N41326 2018 53 NA NA DEBBY 2018-08-05 18:00:00 DS 32.2000 -49.8000 30 1010 hurdat_atl main 1628 1627 O_____________ hurdat_atl AL042018 32.2000 -49.8000 LO 30 1010 -3 1015 150 60 8 221
2018215N41326 2018 53 NA NA DEBBY 2018-08-05 21:00:00 DS 31.9276 -50.1176 main 1657 1656 P_____________ AL042018 31.9276 -50.1176 LO 30 1010 -3 1015 150 60 7 220
2018215N41326 2018 53 NA NA DEBBY 2018-08-06 00:00:00 DS 31.7000 -50.3000 30 1010 hurdat_atl main 1676 1676 O_____________ hurdat_atl AL042018 31.7000 -50.3000 LO 30 1010 -3 1015 150 60 5 190
2018215N41326 2018 53 NA NA DEBBY 2018-08-06 03:00:00 DS 31.4174 -50.2242 main 1711 1711 P_____________ AL042018 31.4174 -50.2242 LO 30 1010 -3 1015 150 60 5 147
2018215N41326 2018 53 NA NA DEBBY 2018-08-06 06:00:00 DS 31.3000 -50.0000 30 1010 hurdat_atl main 1725 1705 O_____________ hurdat_atl AL042018 31.3000 -50.0000 LO 30 1010 -3 1015 150 60 4 75
2018215N41326 2018 53 NA NA DEBBY 2018-08-06 09:00:00 DS 31.5175 -49.7728 main 1705 1666 P_____________ AL042018 31.5175 -49.7728 LO 30 1010 -3 1015 150 60 7 35
2018215N41326 2018 53 NA NA DEBBY 2018-08-06 12:00:00 DS 31.9000 -49.5000 30 1010 hurdat_atl main 1666 1636 O_____________ hurdat_atl AL042018 31.9000 -49.5000 LO 30 1010 -3 1015 150 60 8 33
2018215N41326 2018 53 NA NA DEBBY 2018-08-06 15:00:00 DS 32.2122 -49.2366 main 1638 1600 P_____________ AL042018 32.2122 -49.2366 LO 30 1010 -3 1015 150 55 9 36
2018215N41326 2018 53 NA NA DEBBY 2018-08-06 18:00:00 DS 32.6000 -48.9000 30 1010 hurdat_atl main 1600 1567 O_____________ hurdat_atl AL042018 32.6000 -48.9000 LO 30 1010 -3 1015 150 50 11 41
2018215N41326 2018 53 NA NA DEBBY 2018-08-06 21:00:00 DS 33.0307 -48.3780 main 1567 1503 P_____________ AL042018 33.0307 -48.3780 LO 30 1009 -3 1015 150 45 14 37
2018215N41326 2018 53 NA NA DEBBY 2018-08-07 00:00:00 DS 33.7000 -47.9000 30 1009 hurdat_atl main 1503 1401 O_____________ hurdat_atl AL042018 33.7000 -47.9000 LO 30 1009 -3 1015 150 40 19 19
2018215N41326 2018 53 NA NA DEBBY 2018-08-07 03:00:00 DS 34.7897 -47.6387 main 1393 1277 P_____________ AL042018 34.7897 -47.6387 LO 32 1008 -3 1015 150 40 23 6
2018215N41326 2018 53 NA NA DEBBY 2018-08-07 06:00:00 SS 36.0000 -47.6000 35 1008 hurdat_atl main 1267 1159 O_____________ hurdat_atl AL042018 36.0000 -47.6000 SS 35 1008 -2 140 1015 150 40 23 358
2018215N41326 2018 53 NA NA DEBBY 2018-08-07 09:00:00 SS 37.0398 -47.7585 main 1156 1053 P_____________ AL042018 37.0398 -47.7585 SS 35 1008 -2 140 1015 150 50 19 348
2018215N41326 2018 53 NA NA DEBBY 2018-08-07 12:00:00 SS 37.9000 -48.1000 35 1008 hurdat_atl main 1053 978 O_____________ hurdat_atl AL042018 37.9000 -48.1000 SS 35 1008 -2 140 1015 150 60 16 337
2018215N41326 2018 53 NA NA DEBBY 2018-08-07 15:00:00 SS 38.5405 -48.5718 main 975 911 P_____________ AL042018 38.5405 -48.5718 SS 35 1008 -2 130 1015 150 60 13 327
2018215N41326 2018 53 NA NA DEBBY 2018-08-07 18:00:00 SS 39.0000 -49.0000 35 1008 hurdat_atl main 911 863 O_____________ hurdat_atl AL042018 39.0000 -49.0000 SS 35 1008 -2 120 80 1015 150 60 45 12 120 10 330
2018215N41326 2018 53 NA NA DEBBY 2018-08-07 21:00:00 SS 39.3797 -49.1834 main 863 832 P_____________ AL042018 39.3797 -49.1834 SS 35 1007 -2 95 75 1015 150 55 12 125 7 348
2018215N41326 2018 53 NA NA DEBBY 2018-08-08 00:00:00 TS 39.7000 -49.2000 35 1006 hurdat_atl main 832 801 O_____________ hurdat_atl AL042018 39.7000 -49.2000 TS 35 1006 0 70 70 1015 150 50 45 12 130 7 2
2018215N41326 2018 53 NA NA DEBBY 2018-08-08 03:00:00 TS 40.0575 -49.1452 main 794 767 P_____________ AL042018 40.0575 -49.1452 TS 37 1004 0 55 55 1015 150 40 12 130 7 12
2018215N41326 2018 53 NA NA DEBBY 2018-08-08 06:00:00 TS 40.4000 -49.0000 40 1003 hurdat_atl main 767 740 O_____________ hurdat_atl AL042018 40.4000 -49.0000 TS 40 1003 0 40 40 30 1015 150 30 50 12 130 7 21
2018215N41326 2018 53 NA NA DEBBY 2018-08-08 09:00:00 TS 40.7075 -48.8224 main 744 722 P_____________ AL042018 40.7075 -48.8224 TS 40 1003 0 40 40 30 1015 150 30 12 130 7 27
2018215N41326 2018 53 NA NA DEBBY 2018-08-08 12:00:00 TS 41.0000 -48.6000 40 1003 hurdat_atl main 722 702 O_____________ hurdat_atl AL042018 41.0000 -48.6000 TS 40 1003 0 40 40 30 1015 150 30 50 12 130 7 30
2018215N41326 2018 53 NA NA DEBBY 2018-08-08 15:00:00 TS 41.2847 -48.3867 main 702 687 P_____________ AL042018 41.2847 -48.3867 TS 40 1001 0 40 45 1015 150 30 7 32
2018215N41326 2018 53 NA NA DEBBY 2018-08-08 18:00:00 TS 41.6000 -48.1000 40 1000 hurdat_atl main 687 671 O_____________ hurdat_atl AL042018 41.6000 -48.1000 TS 40 1000 0 40 50 1015 150 30 45 9 36
2018215N41326 2018 53 NA NA DEBBY 2018-08-08 21:00:00 TS 41.9848 -47.7023 main 671 659 P_____________ AL042018 41.9848 -47.7023 TS 42 999 0 35 55 1013 150 30 10 40
2018215N41326 2018 53 NA NA DEBBY 2018-08-09 00:00:00 TS 42.4000 -47.2000 45 998 hurdat_atl main 664 660 O_____________ hurdat_atl AL042018 42.4000 -47.2000 TS 45 998 0 30 60 1012 150 30 45 12 180 11 44
2018215N41326 2018 53 NA NA DEBBY 2018-08-09 03:00:00 TS 42.7995 -46.6515 main 663 661 P_____________ AL042018 42.7995 -46.6515 TS 42 999 0 30 60 1012 150 30 12 180 12 48
2018215N41326 2018 53 NA NA DEBBY 2018-08-09 06:00:00 TS 43.2000 -46.0000 40 1000 hurdat_atl main 678 677 O_____________ hurdat_atl AL042018 43.2000 -46.0000 TS 40 1000 0 30 60 1012 150 30 50 12 180 13 52
2018215N41326 2018 53 NA NA DEBBY 2018-08-09 09:00:00 TS 43.5761 -45.2870 main 697 697 P_____________ AL042018 43.5761 -45.2870 TS 40 1001 0 75 1012 150 30 12 180 14 55
2018215N41326 2018 53 NA NA DEBBY 2018-08-09 12:00:00 TS 44.0000 -44.4000 40 1002 hurdat_atl main 737 737 O_____________ hurdat_atl AL042018 44.0000 -44.4000 TS 40 1002 0 90 1012 150 30 50 12 180 90 17 55
2018215N41326 2018 53 NA NA DEBBY 2018-08-09 15:00:00 TS 44.5475 -43.3421 main 788 783 P_____________ AL042018 44.5475 -43.3421 TS 37 1003 0 90 1012 150 30 20 57
2018215N41326 2018 53 NA NA DEBBY 2018-08-09 18:00:00 DS 45.1000 -42.0000 35 1004 hurdat_atl main 852 852 O_____________ hurdat_atl AL042018 45.1000 -42.0000 LO 35 1004 -3 90 1012 150 30 45 23 65
2018215N41326 2018 53 NA NA DEBBY 2018-08-09 21:00:00 DS 45.5371 -40.3534 main 954 954 P_____________ AL042018 45.5371 -40.3534 LO 35 1004 -3 90 1012 150 30 26 72
2018215N41326 2018 53 NA NA DEBBY 2018-08-10 00:00:00 ET 45.9000 -38.5000 35 1004 hurdat_atl main 1083 1083 O_____________ hurdat_atl AL042018 45.9000 -38.5000 EX 35 1004 -4 90 1012 150 30 27 75
2018215N41326 2018 53 NA NA DEBBY 2018-08-10 03:00:00 ET 46.2200 -36.6274 main 1217 1217 P_____________ AL042018 46.2200 -36.6274 EX 35 1004 -4 90 1012 150 30 27 77
2018215N41326 2018 53 NA NA DEBBY 2018-08-10 06:00:00 ET 46.5000 -34.7000 35 1004 hurdat_atl main 1353 1353 O_____________ hurdat_atl AL042018 46.5000 -34.7000 EX 35 1004 -4 90 1012 150 30 27 79
2018215N41326 2018 53 NA NA DEBBY 2018-08-10 09:00:00 ET 46.7613 -32.7565 main 1488 1488 P_____________ AL042018 46.7613 -32.7565 EX 32 1004 -4 1012 150 30 27 79
2018215N41326 2018 53 NA NA DEBBY 2018-08-10 12:00:00 ET 47.0000 -30.8000 30 1004 hurdat_atl main 1556 O_____________ hurdat_atl AL042018 47.0000 -30.8000 EX 30 1004 -4 1012 150 30 27 80

About IBTrACS Database

This database is a web-friendly format of International Best Track Archive for Climate Stewardship (IBTrACS), a global best track data archive curated by NOAA dating back to 1842.

Updated: 2021-12-06